createdAt,value
2018-10-06T00:00:53.353Z,64.69
2018-10-06T00:03:22.537Z,64.24
2018-10-06T00:05:51.708Z,64.41
2018-10-06T00:08:20.856Z,64.47
2018-10-06T00:10:50.049Z,64.70
2018-10-06T00:13:19.196Z,64.93
2018-10-06T00:15:48.381Z,64.62
2018-10-06T00:18:17.565Z,64.82
2018-10-06T00:20:46.724Z,64.84
2018-10-06T00:23:15.853Z,64.67
2018-10-06T00:25:45.065Z,64.43
2018-10-06T00:28:14.225Z,64.48
2018-10-06T00:30:43.377Z,64.77
2018-10-06T00:33:12.528Z,65.11
2018-10-06T00:35:41.710Z,64.90
2018-10-06T00:38:10.875Z,65.05
2018-10-06T00:40:40.073Z,64.93
2018-10-06T00:43:09.248Z,64.80
2018-10-06T00:45:38.437Z,65.16
2018-10-06T00:48:07.728Z,64.82
2018-10-06T00:50:36.880Z,64.88
2018-10-06T00:53:06.032Z,65.18
2018-10-06T00:55:35.221Z,65.33
2018-10-06T00:58:04.367Z,65.29
2018-10-06T01:00:33.536Z,65.48
2018-10-06T01:03:02.725Z,65.55
2018-10-06T01:05:31.921Z,64.94
2018-10-06T01:08:01.092Z,65.27
2018-10-06T01:10:30.298Z,65.29
2018-10-06T01:12:59.487Z,65.01
2018-10-06T01:15:28.684Z,65.18
2018-10-06T01:17:58.386Z,65.07
2018-10-06T01:20:27.523Z,65.10
2018-10-06T01:22:56.711Z,65.14
2018-10-06T01:25:25.869Z,65.04
2018-10-06T01:27:55.041Z,65.01
2018-10-06T01:30:24.219Z,65.10
2018-10-06T01:32:53.397Z,65.16
2018-10-06T01:35:22.577Z,65.21
2018-10-06T01:37:51.720Z,65.03
2018-10-06T01:40:20.923Z,64.94
2018-10-06T01:42:50.128Z,65.08
2018-10-06T01:45:19.298Z,64.94
2018-10-06T01:47:48.467Z,65.11
2018-10-06T01:50:17.675Z,64.79
2018-10-06T01:52:46.928Z,64.69
2018-10-06T01:55:16.121Z,64.77
2018-10-06T01:57:45.280Z,65.19
2018-10-06T02:00:14.828Z,65.16
2018-10-06T02:02:43.977Z,65.50
2018-10-06T02:05:13.099Z,65.64
2018-10-06T02:07:42.252Z,65.71
2018-10-06T02:10:11.380Z,65.63
2018-10-06T02:12:40.562Z,66.13
2018-10-06T02:15:10.024Z,65.82
2018-10-06T02:17:39.215Z,66.33
2018-10-06T02:20:08.795Z,66.14
2018-10-06T02:22:37.997Z,66.57
2018-10-06T02:25:07.200Z,66.41
2018-10-06T02:27:36.380Z,66.65
2018-10-06T02:30:05.913Z,66.64
2018-10-06T02:32:35.031Z,66.77
2018-10-06T02:35:04.172Z,66.91
2018-10-06T02:37:34.573Z,66.96
2018-10-06T02:40:03.791Z,66.66
2018-10-06T02:42:32.959Z,66.48
2018-10-06T02:45:02.133Z,66.33
2018-10-06T02:47:31.322Z,66.47
2018-10-06T02:50:00.505Z,66.43
2018-10-06T02:52:29.635Z,66.38
2018-10-06T02:54:58.798Z,66.65
2018-10-06T02:57:27.916Z,66.62
2018-10-06T02:59:57.084Z,66.37
2018-10-06T03:02:26.248Z,66.33
2018-10-06T03:04:55.420Z,66.38
2018-10-06T03:07:24.583Z,66.71
2018-10-06T03:09:53.724Z,66.26
2018-10-06T03:12:22.872Z,66.48
2018-10-06T03:14:52.015Z,66.23
2018-10-06T03:17:21.184Z,66.09
2018-10-06T03:19:50.375Z,66.26
2018-10-06T03:22:19.557Z,66.28
2018-10-06T03:24:48.727Z,66.05
2018-10-06T03:27:17.889Z,66.41
2018-10-06T03:29:47.042Z,65.82
2018-10-06T03:32:16.214Z,66.09
2018-10-06T03:34:45.408Z,66.24
2018-10-06T03:37:14.643Z,66.28
2018-10-06T03:39:43.816Z,66.03
2018-10-06T03:42:13.014Z,65.69
2018-10-06T03:44:42.207Z,66.36
2018-10-06T03:47:11.384Z,66.15
2018-10-06T03:49:40.544Z,66.15
2018-10-06T03:52:09.707Z,65.80
2018-10-06T03:54:38.921Z,66.24
2018-10-06T03:57:08.080Z,66.03
2018-10-06T03:59:37.240Z,65.99
2018-10-06T04:02:06.422Z,65.88
2018-10-06T04:04:35.572Z,66.12
2018-10-06T04:07:04.748Z,65.93
2018-10-06T04:09:33.948Z,66.32
2018-10-06T04:12:03.109Z,66.18
2018-10-06T04:14:32.266Z,66.40
2018-10-06T04:17:01.452Z,66.14
2018-10-06T04:19:30.600Z,66.24
2018-10-06T04:21:59.747Z,66.65
2018-10-06T04:24:28.893Z,66.31
2018-10-06T04:26:58.070Z,66.31
2018-10-06T04:29:27.249Z,66.12
2018-10-06T04:31:56.437Z,66.16
2018-10-06T04:34:25.611Z,65.88
2018-10-06T04:36:54.764Z,66.07
2018-10-06T04:39:23.929Z,65.79
2018-10-06T04:41:53.097Z,66.26
2018-10-06T04:44:22.263Z,66.28
2018-10-06T04:46:51.428Z,66.64
2018-10-06T04:49:20.596Z,66.33
2018-10-06T04:51:49.803Z,66.29
2018-10-06T04:54:18.960Z,66.29
2018-10-06T04:56:48.143Z,66.18
2018-10-06T04:59:17.302Z,66.09
2018-10-06T05:01:46.429Z,66.14
2018-10-06T05:04:15.574Z,66.15
2018-10-06T05:06:44.772Z,66.57
2018-10-06T05:09:13.949Z,66.29
2018-10-06T05:11:43.092Z,66.51
2018-10-06T05:14:12.270Z,66.50
2018-10-06T05:16:41.386Z,66.53
2018-10-06T05:19:10.528Z,66.18
2018-10-06T05:21:39.715Z,66.09
2018-10-06T05:24:08.956Z,66.22
2018-10-06T05:26:38.132Z,65.93
2018-10-06T05:29:07.277Z,66.08
2018-10-06T05:31:36.460Z,66.14
2018-10-06T05:34:05.840Z,66.43
2018-10-06T05:36:34.962Z,66.47
2018-10-06T05:39:04.723Z,66.55
2018-10-06T05:41:33.900Z,66.12
2018-10-06T05:44:03.116Z,65.90
2018-10-06T05:46:32.359Z,65.73
2018-10-06T05:49:01.476Z,65.83
2018-10-06T05:51:30.640Z,65.50
2018-10-06T05:53:59.799Z,65.52
2018-10-06T05:56:28.951Z,65.38
2018-10-06T05:58:58.263Z,65.31
2018-10-06T06:01:27.356Z,64.87
2018-10-06T06:03:56.524Z,64.85
2018-10-06T06:06:25.660Z,64.69
2018-10-06T06:08:54.819Z,64.58
2018-10-06T06:11:23.959Z,64.38
2018-10-06T06:13:53.130Z,63.92
2018-10-06T06:16:22.305Z,63.72
2018-10-06T06:18:51.464Z,63.38
2018-10-06T06:21:20.654Z,63.10
2018-10-06T06:23:49.880Z,62.81
2018-10-06T06:26:19.055Z,62.46
2018-10-06T06:28:48.253Z,62.21
2018-10-06T06:31:17.472Z,62.04
2018-10-06T06:33:46.597Z,61.75
2018-10-06T06:36:15.781Z,61.70
2018-10-06T06:38:44.944Z,61.59
2018-10-06T06:41:14.104Z,61.46
2018-10-06T06:43:43.359Z,61.22
2018-10-06T06:46:12.460Z,61.20
2018-10-06T06:48:41.633Z,61.09
2018-10-06T06:51:10.863Z,61.22
2018-10-06T06:53:40.046Z,60.89
2018-10-06T06:56:09.212Z,60.67
2018-10-06T06:58:38.568Z,60.23
2018-10-06T07:01:07.766Z,60.08
2018-10-06T07:03:36.942Z,60.03
2018-10-06T07:06:06.102Z,59.80
2018-10-06T07:08:35.269Z,60.23
2018-10-06T07:11:04.444Z,60.00
2018-10-06T07:13:33.601Z,59.36
2018-10-06T07:16:02.761Z,59.26
2018-10-06T07:18:31.925Z,58.79
2018-10-06T07:21:01.113Z,58.66
2018-10-06T07:23:30.315Z,58.45
2018-10-06T07:25:59.480Z,57.53
2018-10-06T07:28:28.717Z,57.28
2018-10-06T07:30:57.885Z,57.05
2018-10-06T07:33:27.077Z,57.02
2018-10-06T07:35:56.215Z,56.79
2018-10-06T07:38:25.379Z,56.49
2018-10-06T07:40:54.554Z,56.04
2018-10-06T07:43:23.734Z,55.91
2018-10-06T07:45:52.893Z,55.92
2018-10-06T07:48:22.064Z,55.55
2018-10-06T07:50:51.277Z,55.13
2018-10-06T07:53:20.453Z,54.97
2018-10-06T07:55:49.624Z,54.36
2018-10-06T07:58:18.774Z,54.43
2018-10-06T08:00:47.933Z,54.11
2018-10-06T08:03:17.055Z,53.72
2018-10-06T08:05:46.259Z,53.29
2018-10-06T08:08:15.409Z,52.69
2018-10-06T08:10:44.558Z,52.18
2018-10-06T08:13:13.698Z,51.28
2018-10-06T08:15:42.869Z,51.24
2018-10-06T08:18:11.993Z,51.15
2018-10-06T08:20:41.163Z,51.05
2018-10-06T08:23:10.315Z,50.81
2018-10-06T08:25:39.479Z,50.90
2018-10-06T08:28:08.748Z,50.24
2018-10-06T08:30:37.904Z,49.71
2018-10-06T08:33:07.089Z,49.76
2018-10-06T08:35:36.216Z,49.71
2018-10-06T08:38:05.357Z,49.24
2018-10-06T08:40:34.496Z,48.65
2018-10-06T08:43:03.646Z,48.80
2018-10-06T08:45:32.813Z,48.43
2018-10-06T08:48:01.957Z,47.75
2018-10-06T08:50:31.237Z,47.78
2018-10-06T08:53:00.395Z,47.13
2018-10-06T08:55:29.559Z,46.59
2018-10-06T08:57:58.713Z,46.09
2018-10-06T09:00:27.874Z,45.71
2018-10-06T09:02:56.984Z,45.53
2018-10-06T09:05:26.148Z,45.11
2018-10-06T09:07:55.292Z,45.42
2018-10-06T09:10:24.457Z,44.17
2018-10-06T09:12:53.643Z,42.86
2018-10-06T09:15:22.829Z,41.82
2018-10-06T09:17:52.048Z,40.59
2018-10-06T09:20:21.196Z,38.53
2018-10-06T09:22:50.370Z,35.35
2018-10-06T09:25:19.544Z,32.36
2018-10-06T09:27:48.752Z,30.52
2018-10-06T09:30:17.878Z,29.94
2018-10-06T09:32:47.041Z,28.47
2018-10-06T09:35:16.201Z,29.04
2018-10-06T09:37:45.378Z,29.20
2018-10-06T09:40:14.514Z,27.94
2018-10-06T09:42:43.744Z,28.21
2018-10-06T09:45:12.830Z,28.04
2018-10-06T09:47:41.992Z,28.72
2018-10-06T09:50:11.168Z,29.11
2018-10-06T09:52:40.323Z,28.74
2018-10-06T09:55:09.541Z,28.90
2018-10-06T09:57:38.685Z,28.28
2018-10-06T10:00:08.390Z,28.79
2018-10-06T10:02:42.788Z,28.60
2018-10-06T10:05:17.422Z,29.63
2018-10-06T10:07:46.471Z,29.44
2018-10-06T10:10:15.614Z,30.01
2018-10-06T10:12:44.862Z,30.17
2018-10-06T10:15:14.025Z,30.46
2018-10-06T10:17:43.305Z,30.76
2018-10-06T10:20:12.425Z,29.99
2018-10-06T10:22:41.689Z,30.74
2018-10-06T10:25:10.840Z,31.75
2018-10-06T10:27:40.002Z,31.66
2018-10-06T10:30:09.196Z,31.11
2018-10-06T10:32:38.384Z,31.53
2018-10-06T10:35:07.612Z,32.71
2018-10-06T10:37:36.728Z,32.18
2018-10-06T10:40:05.900Z,32.17
2018-10-06T10:42:35.061Z,32.80
2018-10-06T10:45:04.238Z,32.25
2018-10-06T10:47:33.456Z,32.53
2018-10-06T10:50:02.602Z,31.89
2018-10-06T10:52:31.764Z,32.01
2018-10-06T10:55:00.986Z,31.24
2018-10-06T10:57:30.500Z,31.00
2018-10-06T10:59:59.802Z,31.70
2018-10-06T11:02:28.828Z,31.85
2018-10-06T11:04:57.967Z,32.79
2018-10-06T11:07:27.097Z,32.90
2018-10-06T11:09:56.234Z,34.24
2018-10-06T11:12:25.389Z,35.00
2018-10-06T11:14:54.544Z,35.21
2018-10-06T11:17:23.752Z,35.02
2018-10-06T11:19:52.799Z,36.00
2018-10-06T11:22:21.942Z,36.27
2018-10-06T11:24:54.235Z,35.79
2018-10-06T11:27:23.301Z,35.65
2018-10-06T11:29:52.483Z,36.00
2018-10-06T11:32:21.645Z,35.19
2018-10-06T11:34:50.864Z,35.26
2018-10-06T11:37:20.115Z,35.32
2018-10-06T11:39:49.214Z,34.71
2018-10-06T11:42:18.363Z,34.65
2018-10-06T11:44:47.541Z,35.72
2018-10-06T11:47:16.684Z,35.80
2018-10-06T11:49:45.860Z,35.62
2018-10-06T11:52:15.044Z,35.43
2018-10-06T11:54:44.198Z,35.31
2018-10-06T11:57:13.370Z,35.08
2018-10-06T11:59:42.548Z,35.21
2018-10-06T12:02:11.707Z,34.77
2018-10-06T12:04:40.886Z,34.59
2018-10-06T12:07:10.054Z,34.36
2018-10-06T12:09:39.200Z,34.43
2018-10-06T12:12:08.408Z,34.26
2018-10-06T12:14:37.536Z,34.54
2018-10-06T12:17:06.724Z,34.16
2018-10-06T12:19:35.855Z,34.30
2018-10-06T12:22:05.021Z,34.47
2018-10-06T12:24:34.246Z,33.91
2018-10-06T12:27:03.442Z,33.91
2018-10-06T12:29:32.600Z,33.90
2018-10-06T12:32:01.813Z,34.06
2018-10-06T12:34:30.963Z,33.87
2018-10-06T12:37:00.161Z,33.41
2018-10-06T12:39:29.353Z,33.31
2018-10-06T12:41:58.548Z,33.02
2018-10-06T12:44:27.745Z,33.11
2018-10-06T12:46:56.920Z,32.67
2018-10-06T12:49:26.109Z,32.97
2018-10-06T12:51:55.288Z,33.22
2018-10-06T12:54:24.442Z,32.97
2018-10-06T12:56:53.572Z,32.70
2018-10-06T12:59:22.753Z,32.89
2018-10-06T13:01:51.888Z,32.70
2018-10-06T13:04:21.053Z,32.90
2018-10-06T13:06:50.217Z,32.84
2018-10-06T13:09:19.383Z,32.98
2018-10-06T13:11:48.551Z,32.28
2018-10-06T13:14:17.667Z,32.54
2018-10-06T13:16:46.826Z,32.90
2018-10-06T13:19:16.038Z,32.78
2018-10-06T13:21:45.195Z,32.09
2018-10-06T13:24:14.312Z,32.41
2018-10-06T13:26:43.472Z,32.53
2018-10-06T13:29:12.628Z,32.19
2018-10-06T13:31:41.824Z,32.14
2018-10-06T13:34:11.054Z,31.95
2018-10-06T13:36:40.241Z,32.05
2018-10-06T13:39:10.217Z,31.83
2018-10-06T13:41:39.324Z,32.27
2018-10-06T13:44:08.561Z,31.82
2018-10-06T13:46:37.763Z,32.38
2018-10-06T13:49:06.933Z,32.28
2018-10-06T13:51:36.117Z,31.60
2018-10-06T13:54:05.338Z,31.90
2018-10-06T13:56:34.508Z,31.98
2018-10-06T13:59:03.625Z,32.23
2018-10-06T14:01:32.756Z,32.58
2018-10-06T14:04:01.896Z,32.21
2018-10-06T14:06:31.092Z,32.58
2018-10-06T14:09:00.225Z,32.40
2018-10-06T14:11:29.410Z,32.27
2018-10-06T14:13:58.543Z,32.45
2018-10-06T14:16:27.714Z,32.47
2018-10-06T14:18:56.882Z,31.87
2018-10-06T14:21:26.062Z,32.25
2018-10-06T14:23:55.193Z,32.14
2018-10-06T14:26:24.374Z,32.03
2018-10-06T14:28:53.485Z,32.21
2018-10-06T14:31:22.642Z,32.10
2018-10-06T14:33:51.789Z,32.48
2018-10-06T14:36:20.955Z,32.60
2018-10-06T14:38:50.136Z,32.74
2018-10-06T14:41:19.966Z,32.45
2018-10-06T14:43:49.097Z,33.39
2018-10-06T14:46:18.281Z,33.23
2018-10-06T14:48:47.434Z,34.03
2018-10-06T14:51:16.560Z,33.96
2018-10-06T14:53:45.698Z,34.08
2018-10-06T14:56:14.860Z,34.73
2018-10-06T14:58:44.037Z,35.05
2018-10-06T15:01:13.204Z,35.22
2018-10-06T15:03:42.416Z,36.25
2018-10-06T15:06:11.523Z,36.05
2018-10-06T15:08:40.658Z,36.04
2018-10-06T15:11:09.851Z,36.23
2018-10-06T15:13:39.054Z,36.83
2018-10-06T15:16:08.185Z,37.24
2018-10-06T15:18:37.324Z,37.27
2018-10-06T15:21:06.743Z,37.77
2018-10-06T15:23:35.910Z,37.97
2018-10-06T15:26:05.200Z,37.84
2018-10-06T15:28:34.619Z,38.20
2018-10-06T15:31:03.894Z,38.17
2018-10-06T15:33:33.024Z,38.36
2018-10-06T15:36:02.211Z,38.82
2018-10-06T15:38:31.379Z,38.88
2018-10-06T15:41:00.602Z,38.54
2018-10-06T15:43:29.836Z,38.61
2018-10-06T15:45:59.033Z,38.88
2018-10-06T15:48:28.176Z,39.48
2018-10-06T15:50:57.379Z,39.26
2018-10-06T15:53:26.523Z,40.03
2018-10-06T15:55:55.690Z,39.93
2018-10-06T15:58:24.848Z,39.92
2018-10-06T16:00:54.705Z,40.50
2018-10-06T16:03:23.855Z,40.44
2018-10-06T16:05:52.996Z,40.42
2018-10-06T16:08:22.149Z,40.79
2018-10-06T16:10:54.167Z,40.73
2018-10-06T16:13:23.338Z,41.59
2018-10-06T16:15:52.443Z,41.35
2018-10-06T16:18:21.671Z,41.70
2018-10-06T16:20:50.775Z,42.05
2018-10-06T16:23:20.000Z,42.24
2018-10-06T16:25:49.171Z,42.53
2018-10-06T16:28:18.376Z,42.62
2018-10-06T16:30:47.545Z,42.75
2018-10-06T16:33:16.690Z,43.09
2018-10-06T16:35:45.842Z,43.18
2018-10-06T16:38:14.986Z,43.05
2018-10-06T16:40:44.138Z,43.31
2018-10-06T16:43:13.235Z,43.99
2018-10-06T16:45:42.387Z,43.74
2018-10-06T16:48:11.499Z,44.15
2018-10-06T16:50:40.957Z,44.46
2018-10-06T16:53:10.188Z,44.77
2018-10-06T16:55:39.337Z,45.46
2018-10-06T16:58:08.697Z,45.25
2018-10-06T17:00:37.891Z,45.74
2018-10-06T17:03:07.001Z,45.92
2018-10-06T17:05:36.167Z,46.10
2018-10-06T17:08:05.329Z,46.22
2018-10-06T17:10:34.481Z,46.61
2018-10-06T17:13:03.645Z,46.50
2018-10-06T17:15:32.822Z,46.83
2018-10-06T17:18:01.995Z,46.82
2018-10-06T17:20:31.187Z,47.02
2018-10-06T17:23:00.330Z,46.91
2018-10-06T17:25:29.523Z,47.48
2018-10-06T17:27:58.686Z,47.73
2018-10-06T17:30:27.840Z,47.42
2018-10-06T17:32:56.975Z,47.74
2018-10-06T17:35:26.143Z,47.78
2018-10-06T17:37:55.331Z,48.07
2018-10-06T17:40:24.485Z,48.16
2018-10-06T17:42:53.696Z,47.87
2018-10-06T17:45:22.872Z,48.68
2018-10-06T17:47:52.056Z,49.19
2018-10-06T17:50:21.490Z,49.19
2018-10-06T17:52:50.598Z,49.60
2018-10-06T17:55:19.784Z,49.43
2018-10-06T17:57:48.992Z,49.36
2018-10-06T18:00:18.308Z,49.39
2018-10-06T18:02:47.525Z,49.69
2018-10-06T18:05:16.654Z,49.10
2018-10-06T18:07:45.852Z,49.19
2018-10-06T18:10:14.977Z,49.38
2018-10-06T18:12:44.111Z,49.45
2018-10-06T18:15:13.309Z,49.49
2018-10-06T18:17:42.485Z,49.63
2018-10-06T18:20:11.697Z,50.01
2018-10-06T18:22:40.820Z,49.79
2018-10-06T18:25:09.952Z,50.05
2018-10-06T18:27:39.096Z,50.11
2018-10-06T18:30:08.296Z,50.19
2018-10-06T18:32:37.453Z,49.67
2018-10-06T18:35:06.648Z,50.51
2018-10-06T18:37:35.800Z,50.40
2018-10-06T18:40:04.933Z,50.68
2018-10-06T18:42:34.121Z,50.81
2018-10-06T18:45:03.280Z,50.99
2018-10-06T18:47:32.455Z,50.88
2018-10-06T18:50:01.629Z,51.24
2018-10-06T18:52:30.897Z,51.17
2018-10-06T18:55:00.717Z,50.99
2018-10-06T18:57:29.953Z,51.30
2018-10-06T18:59:59.136Z,50.89
2018-10-06T19:02:28.307Z,51.15
2018-10-06T19:04:57.472Z,50.78
2018-10-06T19:07:26.609Z,50.88
2018-10-06T19:09:55.773Z,50.73
2018-10-06T19:12:24.985Z,50.81
2018-10-06T19:14:54.209Z,51.21
2018-10-06T19:17:23.365Z,51.39
2018-10-06T19:19:52.525Z,51.46
2018-10-06T19:22:21.713Z,51.53
2018-10-06T19:24:50.891Z,51.62
2018-10-06T19:27:20.099Z,51.79
2018-10-06T19:29:49.235Z,51.96
2018-10-06T19:32:18.372Z,52.10
2018-10-06T19:34:47.559Z,52.21
2018-10-06T19:37:16.716Z,52.66
2018-10-06T19:39:45.932Z,52.55
2018-10-06T19:42:15.124Z,52.70
2018-10-06T19:44:44.308Z,52.92
2018-10-06T19:47:13.459Z,52.92
2018-10-06T19:49:42.699Z,53.43
2018-10-06T19:52:11.884Z,53.39
2018-10-06T19:54:41.061Z,53.64
2018-10-06T19:57:10.242Z,53.57
2018-10-06T19:59:39.389Z,53.35
2018-10-06T20:02:08.696Z,52.99
2018-10-06T20:04:37.854Z,53.31
2018-10-06T20:07:08.104Z,52.69
2018-10-06T20:09:37.300Z,52.72
2018-10-06T20:12:07.020Z,52.56
2018-10-06T20:14:36.177Z,52.54
2018-10-06T20:17:07.092Z,52.64
2018-10-06T20:19:36.234Z,52.71
2018-10-06T20:22:06.374Z,52.72
2018-10-06T20:24:35.595Z,52.46
2018-10-06T20:27:04.804Z,52.68
2018-10-06T20:29:33.875Z,52.43
2018-10-06T20:32:03.028Z,52.54
2018-10-06T20:34:32.203Z,52.94
2018-10-06T20:37:01.532Z,52.24
2018-10-06T20:39:30.713Z,52.41
2018-10-06T20:42:00.182Z,52.11
2018-10-06T20:44:29.335Z,52.18
2018-10-06T20:46:58.446Z,52.23
2018-10-06T20:49:27.622Z,52.33
2018-10-06T20:51:56.784Z,52.38
2018-10-06T20:54:25.957Z,52.59
2018-10-06T20:56:55.104Z,52.96
2018-10-06T20:59:24.237Z,52.98
2018-10-06T21:01:53.440Z,52.97
2018-10-06T21:04:22.635Z,53.53
2018-10-06T21:06:51.759Z,53.91
2018-10-06T21:09:21.055Z,53.97
2018-10-06T21:11:50.187Z,54.34
2018-10-06T21:14:19.405Z,54.51
2018-10-06T21:16:48.556Z,54.54
2018-10-06T21:19:17.690Z,54.57
2018-10-06T21:21:46.910Z,54.45
2018-10-06T21:24:16.019Z,53.85
2018-10-06T21:26:45.200Z,53.79
2018-10-06T21:29:14.546Z,53.82
2018-10-06T21:31:43.636Z,53.63
2018-10-06T21:34:12.823Z,53.58
2018-10-06T21:36:41.979Z,53.93
2018-10-06T21:39:11.166Z,53.83
2018-10-06T21:41:40.329Z,53.77
2018-10-06T21:44:09.585Z,54.25
2018-10-06T21:46:38.731Z,54.72
2018-10-06T21:49:07.881Z,54.67
2018-10-06T21:51:37.091Z,54.49
2018-10-06T21:54:06.279Z,54.97
2018-10-06T21:56:35.392Z,55.08
2018-10-06T21:59:04.528Z,55.42
2018-10-06T22:01:35.310Z,55.86
2018-10-06T22:04:04.553Z,56.21
2018-10-06T22:06:33.732Z,56.44
2018-10-06T22:09:02.840Z,56.35
2018-10-06T22:11:32.010Z,56.43
2018-10-06T22:14:01.151Z,56.30
2018-10-06T22:16:30.407Z,56.20
2018-10-06T22:18:59.612Z,56.27
2018-10-06T22:21:28.757Z,56.00
2018-10-06T22:23:57.871Z,56.47
2018-10-06T22:26:27.059Z,56.16
2018-10-06T22:28:56.219Z,56.34
2018-10-06T22:31:25.358Z,56.39
2018-10-06T22:33:54.548Z,56.58
2018-10-06T22:36:23.692Z,56.48
2018-10-06T22:38:52.873Z,56.61
2018-10-06T22:41:22.053Z,56.47
2018-10-06T22:43:51.325Z,56.62
2018-10-06T22:46:20.434Z,56.79
2018-10-06T22:48:49.656Z,56.93
2018-10-06T22:51:18.828Z,57.11
2018-10-06T22:53:47.989Z,57.21
2018-10-06T22:56:17.207Z,57.26
2018-10-06T22:58:46.407Z,57.51
2018-10-06T23:01:15.540Z,57.96
2018-10-06T23:03:44.690Z,57.88
2018-10-06T23:06:13.864Z,57.93
2018-10-06T23:08:43.056Z,57.94
2018-10-06T23:11:12.232Z,58.27
2018-10-06T23:13:41.380Z,58.29
2018-10-06T23:16:10.581Z,58.60
2018-10-06T23:18:39.746Z,58.56
2018-10-06T23:21:08.917Z,58.66
2018-10-06T23:23:38.079Z,59.05
2018-10-06T23:26:07.295Z,59.58
2018-10-06T23:28:36.469Z,59.75
2018-10-06T23:31:05.600Z,59.51
2018-10-06T23:33:34.827Z,60.14
2018-10-06T23:36:03.913Z,60.33
2018-10-06T23:38:33.126Z,60.41
2018-10-06T23:41:02.252Z,60.75
2018-10-06T23:43:31.376Z,60.61
2018-10-06T23:46:00.519Z,60.88
2018-10-06T23:48:29.680Z,60.75
2018-10-06T23:50:58.835Z,60.79
2018-10-06T23:53:27.983Z,60.76
2018-10-06T23:55:57.165Z,60.71
2018-10-06T23:58:26.327Z,60.73
